createdAt,value
2018-12-26T00:01:45.838Z,5.67
2018-12-26T00:04:19.970Z,5.47
2018-12-26T00:06:54.059Z,5.43
2018-12-26T00:09:28.193Z,6.40
2018-12-26T00:12:02.179Z,5.17
2018-12-26T00:14:36.339Z,5.77
2018-12-26T00:17:10.407Z,5.47
2018-12-26T00:19:44.465Z,5.87
2018-12-26T00:22:18.540Z,5.53
2018-12-26T00:24:52.519Z,4.83
2018-12-26T00:27:27.347Z,5.40
2018-12-26T00:30:01.472Z,6.23
2018-12-26T00:32:35.496Z,4.97
2018-12-26T00:35:09.425Z,5.90
2018-12-26T00:37:43.523Z,5.93
2018-12-26T00:40:18.222Z,5.63
2018-12-26T00:42:52.380Z,5.83
2018-12-26T00:45:26.438Z,5.03
2018-12-26T00:48:00.557Z,5.27
2018-12-26T00:50:35.318Z,4.77
2018-12-26T00:53:09.407Z,4.90
2018-12-26T00:55:43.425Z,5.87
2018-12-26T00:58:18.222Z,6.03
2018-12-26T01:00:52.353Z,5.63
2018-12-26T01:03:26.514Z,5.53
2018-12-26T01:06:00.670Z,5.23
2018-12-26T01:08:34.739Z,6.80
2018-12-26T01:11:08.773Z,5.37
2018-12-26T01:13:42.928Z,5.47
2018-12-26T01:16:17.054Z,5.93
2018-12-26T01:18:51.174Z,5.50
2018-12-26T01:21:25.271Z,5.93
2018-12-26T01:24:00.116Z,5.33
2018-12-26T01:26:34.205Z,5.47
2018-12-26T01:29:08.302Z,5.30
2018-12-26T01:31:42.412Z,5.43
2018-12-26T01:34:17.200Z,5.47
2018-12-26T01:36:51.284Z,5.97
2018-12-26T01:39:25.390Z,5.07
2018-12-26T01:41:59.514Z,4.90
2018-12-26T01:44:34.430Z,5.60
2018-12-26T01:47:09.384Z,5.73
2018-12-26T01:49:43.567Z,5.37
2018-12-26T01:52:17.868Z,5.57
2018-12-26T01:54:52.000Z,6.07
2018-12-26T01:57:25.980Z,5.20
2018-12-26T02:00:00.873Z,5.60
2018-12-26T02:02:35.712Z,4.50
2018-12-26T02:05:10.630Z,5.53
2018-12-26T02:07:45.917Z,6.23
2018-12-26T02:10:19.842Z,5.80
2018-12-26T02:12:53.976Z,5.70
2018-12-26T02:15:28.076Z,5.83
2018-12-26T02:18:02.831Z,5.50
2018-12-26T02:20:36.938Z,5.13
2018-12-26T02:23:11.828Z,5.57
2018-12-26T02:25:45.918Z,5.50
2018-12-26T02:28:19.975Z,5.10
2018-12-26T02:30:54.149Z,5.43
2018-12-26T02:33:28.221Z,5.67
2018-12-26T02:36:02.360Z,5.37
2018-12-26T02:38:37.204Z,6.10
2018-12-26T02:41:12.006Z,5.17
2018-12-26T02:43:46.095Z,5.27
2018-12-26T02:46:20.242Z,5.77
2018-12-26T02:48:54.276Z,5.47
2018-12-26T02:51:28.350Z,5.93
2018-12-26T02:54:02.403Z,5.17
2018-12-26T02:56:46.210Z,5.20
2018-12-26T02:59:10.712Z,5.37
2018-12-26T03:01:44.836Z,5.77
2018-12-26T03:04:18.937Z,5.67
2018-12-26T03:06:52.980Z,6.30
2018-12-26T03:09:27.673Z,5.73
2018-12-26T03:12:01.770Z,6.50
2018-12-26T03:14:36.628Z,6.07
2018-12-26T03:17:11.477Z,7.13
2018-12-26T03:19:45.528Z,6.93
2018-12-26T03:22:19.694Z,6.60
2018-12-26T03:24:53.672Z,6.53
2018-12-26T03:27:28.805Z,6.83
2018-12-26T03:30:04.646Z,7.30
2018-12-26T03:32:39.567Z,7.73
2018-12-26T03:35:13.759Z,7.97
2018-12-26T03:37:47.768Z,10.07
2018-12-26T03:40:21.720Z,8.30
2018-12-26T03:42:55.764Z,8.40
2018-12-26T03:45:29.902Z,8.63
2018-12-26T03:48:04.008Z,8.37
2018-12-26T03:50:39.068Z,9.60
2018-12-26T03:53:13.064Z,8.50
2018-12-26T03:55:47.109Z,9.27
2018-12-26T03:58:21.039Z,8.07
2018-12-26T04:00:55.058Z,8.80
2018-12-26T04:03:29.075Z,7.53
2018-12-26T04:06:03.175Z,8.73
2018-12-26T04:08:37.928Z,8.90
2018-12-26T04:11:11.751Z,9.10
2018-12-26T04:13:45.751Z,9.67
2018-12-26T04:16:19.747Z,8.50
2018-12-26T04:18:53.785Z,8.03
2018-12-26T04:21:27.779Z,9.00
2018-12-26T04:24:02.410Z,8.67
2018-12-26T04:26:37.298Z,8.77
2018-12-26T04:29:11.355Z,7.40
2018-12-26T04:31:45.329Z,8.20
2018-12-26T04:34:19.391Z,8.87
2018-12-26T04:36:53.365Z,9.60
2018-12-26T04:39:27.454Z,8.20
2018-12-26T04:42:02.178Z,7.07
2018-12-26T04:44:36.272Z,7.10
2018-12-26T04:47:11.140Z,7.80
2018-12-26T04:49:45.960Z,6.67
2018-12-26T04:52:20.808Z,7.10
2018-12-26T04:54:56.401Z,8.20
2018-12-26T04:57:28.940Z,8.13
2018-12-26T05:00:03.772Z,8.13
2018-12-26T05:02:37.775Z,9.73
2018-12-26T05:05:12.722Z,9.50
2018-12-26T05:07:46.807Z,8.97
2018-12-26T05:10:20.937Z,8.53
2018-12-26T05:12:55.055Z,9.37
2018-12-26T05:15:29.173Z,10.40
2018-12-26T05:18:03.441Z,10.07
2018-12-26T05:20:37.486Z,8.03
2018-12-26T05:23:11.595Z,9.60
2018-12-26T05:25:45.621Z,10.50
2018-12-26T05:28:19.588Z,8.37
2018-12-26T05:30:53.730Z,9.40
2018-12-26T05:33:28.531Z,8.70
2018-12-26T05:36:03.411Z,7.87
2018-12-26T05:38:37.560Z,8.87
2018-12-26T05:41:12.402Z,8.77
2018-12-26T05:43:46.511Z,7.70
2018-12-26T05:46:20.584Z,8.40
2018-12-26T05:48:55.400Z,9.30
2018-12-26T05:51:29.580Z,8.10
2018-12-26T05:54:04.427Z,10.47
2018-12-26T05:56:38.541Z,10.37
2018-12-26T05:59:12.687Z,8.37
2018-12-26T06:01:46.828Z,9.27
2018-12-26T06:04:21.000Z,9.40
2018-12-26T06:06:54.905Z,12.20
2018-12-26T06:09:29.060Z,11.73
2018-12-26T06:12:03.112Z,10.70
2018-12-26T06:14:38.081Z,10.30
2018-12-26T06:17:12.172Z,10.53
2018-12-26T06:19:47.100Z,11.03
2018-12-26T06:22:21.955Z,9.80
2018-12-26T06:24:56.181Z,10.40
2018-12-26T06:27:31.076Z,11.80
2018-12-26T06:30:05.604Z,10.27
2018-12-26T06:32:40.327Z,11.33
2018-12-26T06:35:15.204Z,10.83
2018-12-26T06:37:49.321Z,11.83
2018-12-26T06:40:23.409Z,10.73
2018-12-26T06:42:57.375Z,11.33
2018-12-26T06:45:31.487Z,11.40
2018-12-26T06:48:05.679Z,12.20
2018-12-26T06:50:40.496Z,10.57
2018-12-26T06:53:14.581Z,12.03
2018-12-26T06:55:48.728Z,11.60
2018-12-26T06:58:23.653Z,10.33
2018-12-26T07:00:57.725Z,12.20
2018-12-26T07:03:31.727Z,11.30
2018-12-26T07:06:06.601Z,11.47
2018-12-26T07:08:40.540Z,12.30
2018-12-26T07:11:14.599Z,10.77
2018-12-26T07:13:48.599Z,11.77
2018-12-26T07:16:22.691Z,12.73
2018-12-26T07:18:56.880Z,12.33
2018-12-26T07:21:31.095Z,10.87
2018-12-26T07:24:06.052Z,11.50
2018-12-26T07:26:40.014Z,11.00
2018-12-26T07:29:14.124Z,12.23
2018-12-26T07:31:48.263Z,9.93
2018-12-26T07:34:22.488Z,11.57
2018-12-26T07:36:56.604Z,12.03
2018-12-26T07:39:30.840Z,11.33
2018-12-26T07:42:04.908Z,10.33
2018-12-26T07:44:39.820Z,11.43
2018-12-26T07:47:13.899Z,9.47
2018-12-26T07:49:48.060Z,10.67
2018-12-26T07:52:22.962Z,11.70
2018-12-26T07:54:57.796Z,9.07
2018-12-26T07:57:31.897Z,11.47
2018-12-26T08:00:06.189Z,11.73
2018-12-26T08:02:40.153Z,10.90
2018-12-26T08:05:14.891Z,10.73
2018-12-26T08:07:48.993Z,10.67
2018-12-26T08:10:22.981Z,9.77
2018-12-26T08:12:57.013Z,9.07
2018-12-26T08:15:31.930Z,12.17
2018-12-26T08:18:06.047Z,11.90
2018-12-26T08:20:40.888Z,10.70
2018-12-26T08:23:14.964Z,11.27
2018-12-26T08:25:49.060Z,10.30
2018-12-26T08:28:26.652Z,9.27
2018-12-26T08:30:57.319Z,10.93
2018-12-26T08:33:31.561Z,9.90
2018-12-26T08:36:05.681Z,11.47
2018-12-26T08:38:39.810Z,11.47
2018-12-26T08:41:13.907Z,12.03
2018-12-26T08:43:47.845Z,12.23
2018-12-26T08:46:21.835Z,12.43
2018-12-26T08:48:55.891Z,12.83
2018-12-26T08:51:29.929Z,11.23
2018-12-26T08:54:04.048Z,11.57
2018-12-26T08:56:37.978Z,10.83
2018-12-26T08:59:12.064Z,12.57
2018-12-26T09:01:46.202Z,11.00
2018-12-26T09:04:20.396Z,10.97
2018-12-26T09:06:54.412Z,10.63
2018-12-26T09:09:28.540Z,10.57
2018-12-26T09:12:02.564Z,9.17
2018-12-26T09:14:37.397Z,9.27
2018-12-26T09:17:11.343Z,11.23
2018-12-26T09:19:45.311Z,9.53
2018-12-26T09:22:19.320Z,10.57
2018-12-26T09:24:54.030Z,11.10
2018-12-26T09:27:28.168Z,11.77
2018-12-26T09:30:02.322Z,11.90
2018-12-26T09:32:36.400Z,10.50
2018-12-26T09:35:10.460Z,11.17
2018-12-26T09:37:44.561Z,10.27
2018-12-26T09:40:18.668Z,9.80
2018-12-26T09:42:52.820Z,9.43
2018-12-26T09:45:26.936Z,10.23
2018-12-26T09:48:00.919Z,10.57
2018-12-26T09:50:34.852Z,12.13
2018-12-26T09:53:26.261Z,12.63
2018-12-26T09:56:00.416Z,11.40
2018-12-26T09:58:35.334Z,13.40
2018-12-26T10:01:09.421Z,12.87
2018-12-26T10:03:43.557Z,12.30
2018-12-26T10:06:17.676Z,12.13
2018-12-26T10:08:51.821Z,11.47
2018-12-26T10:11:26.025Z,11.57
2018-12-26T10:14:00.087Z,13.23
2018-12-26T10:16:34.168Z,10.27
2018-12-26T10:19:08.332Z,10.47
2018-12-26T10:21:42.435Z,10.40
2018-12-26T10:24:16.565Z,9.77
2018-12-26T10:26:50.564Z,12.40
2018-12-26T10:29:24.757Z,9.83
2018-12-26T10:31:58.791Z,10.93
2018-12-26T10:34:32.927Z,11.10
2018-12-26T10:37:07.892Z,10.30
2018-12-26T10:39:41.856Z,10.77
2018-12-26T10:42:16.680Z,10.97
2018-12-26T10:44:50.807Z,11.57
2018-12-26T10:47:25.752Z,10.87
2018-12-26T10:49:59.821Z,10.40
2018-12-26T10:52:48.776Z,8.30
2018-12-26T10:55:22.810Z,10.10
2018-12-26T10:57:57.547Z,10.37
2018-12-26T11:00:31.660Z,10.27
2018-12-26T11:03:05.835Z,11.30
2018-12-26T11:05:39.955Z,11.83
2018-12-26T11:08:14.157Z,12.80
2018-12-26T11:10:48.316Z,9.90
2018-12-26T11:13:22.332Z,10.17
2018-12-26T11:15:56.440Z,11.37
2018-12-26T11:18:30.581Z,9.07
2018-12-26T11:21:05.316Z,10.27
2018-12-26T11:23:39.468Z,11.70
2018-12-26T11:26:14.323Z,9.53
2018-12-26T11:28:48.437Z,10.70
2018-12-26T11:31:22.681Z,9.03
2018-12-26T11:33:56.676Z,10.27
2018-12-26T11:36:30.788Z,9.77
2018-12-26T11:39:06.133Z,10.60
2018-12-26T11:41:40.185Z,9.87
2018-12-26T11:44:14.269Z,10.57
2018-12-26T11:46:48.371Z,10.33
2018-12-26T11:49:22.320Z,10.97
2018-12-26T11:51:56.306Z,11.53
2018-12-26T11:54:30.259Z,10.67
2018-12-26T11:57:04.341Z,11.37
2018-12-26T11:59:38.425Z,11.00
2018-12-26T12:02:20.410Z,11.30
2018-12-26T12:04:46.852Z,11.00
2018-12-26T12:07:21.704Z,10.60
2018-12-26T12:09:55.945Z,11.60
2018-12-26T12:12:30.882Z,11.80
2018-12-26T12:15:05.207Z,9.70
2018-12-26T12:17:39.756Z,10.23
2018-12-26T12:20:13.940Z,10.40
2018-12-26T12:22:48.076Z,9.20
2018-12-26T12:25:22.778Z,9.27
2018-12-26T12:27:57.123Z,10.43
2018-12-26T12:30:33.777Z,10.07
2018-12-26T12:33:08.887Z,11.10
2018-12-26T12:35:43.518Z,11.13
2018-12-26T12:38:17.512Z,10.57
2018-12-26T12:40:51.633Z,11.97
2018-12-26T12:43:25.644Z,11.70
2018-12-26T12:45:59.602Z,11.47
2018-12-26T12:48:33.748Z,10.90
2018-12-26T12:51:07.845Z,11.93
2018-12-26T12:53:41.989Z,10.57
2018-12-26T12:56:16.100Z,10.90
2018-12-26T12:58:50.264Z,11.10
2018-12-26T13:01:24.329Z,9.37
2018-12-26T13:03:58.404Z,10.10
2018-12-26T13:06:33.281Z,9.63
2018-12-26T13:09:07.376Z,11.63
2018-12-26T13:11:41.487Z,10.23
2018-12-26T13:14:15.605Z,10.23
2018-12-26T13:16:50.344Z,10.57
2018-12-26T13:19:24.432Z,9.27
2018-12-26T13:21:58.538Z,11.37
2018-12-26T13:24:32.570Z,10.87
2018-12-26T13:27:06.523Z,10.90
2018-12-26T13:29:42.173Z,11.13
2018-12-26T13:32:14.761Z,11.47
2018-12-26T13:34:48.882Z,14.00
2018-12-26T13:37:23.753Z,11.70
2018-12-26T13:39:57.855Z,11.63
2018-12-26T13:42:31.884Z,12.50
2018-12-26T13:45:05.904Z,11.40
2018-12-26T13:47:39.860Z,11.73
2018-12-26T13:50:13.993Z,13.37
2018-12-26T13:52:48.859Z,11.37
2018-12-26T13:55:22.927Z,11.20
2018-12-26T13:57:56.976Z,10.97
2018-12-26T14:00:31.656Z,11.93
2018-12-26T14:03:05.745Z,10.90
2018-12-26T14:05:39.687Z,13.33
2018-12-26T14:08:13.799Z,12.40
2018-12-26T14:10:47.848Z,11.27
2018-12-26T14:13:21.972Z,11.40
2018-12-26T14:15:55.955Z,12.47
2018-12-26T14:18:29.965Z,11.07
2018-12-26T14:21:04.060Z,10.60
2018-12-26T14:23:38.224Z,11.13
2018-12-26T14:26:12.379Z,11.30
2018-12-26T14:28:46.500Z,10.57
2018-12-26T14:31:20.688Z,10.80
2018-12-26T14:33:54.776Z,11.07
2018-12-26T14:36:28.740Z,11.37
2018-12-26T14:39:03.712Z,11.10
2018-12-26T14:41:38.566Z,9.13
2018-12-26T14:44:12.664Z,11.10
2018-12-26T14:46:46.711Z,12.20
2018-12-26T14:49:20.697Z,12.90
2018-12-26T14:51:54.788Z,10.87
2018-12-26T14:54:29.709Z,10.83
2018-12-26T14:57:04.556Z,11.27
2018-12-26T14:59:38.661Z,11.77
2018-12-26T15:02:12.834Z,9.70
2018-12-26T15:04:46.799Z,12.00
2018-12-26T15:07:20.887Z,11.47
2018-12-26T15:09:55.001Z,11.33
2018-12-26T15:12:29.124Z,10.97
2018-12-26T15:15:03.456Z,12.40
2018-12-26T15:17:37.496Z,12.13
2018-12-26T15:20:11.646Z,10.80
2018-12-26T15:22:45.844Z,12.13
2018-12-26T15:25:20.616Z,10.53
2018-12-26T15:27:54.633Z,11.03
2018-12-26T15:30:28.910Z,10.53
2018-12-26T15:33:03.571Z,10.80
2018-12-26T15:35:37.557Z,12.17
2018-12-26T15:38:11.648Z,11.33
2018-12-26T15:40:45.756Z,10.00
2018-12-26T15:43:19.863Z,9.17
2018-12-26T15:45:53.905Z,11.03
2018-12-26T15:48:27.987Z,11.57
2018-12-26T15:51:02.111Z,10.30
2018-12-26T15:53:45.440Z,10.83
2018-12-26T15:56:19.420Z,11.37
2018-12-26T15:58:53.372Z,12.43
2018-12-26T16:01:27.521Z,12.27
2018-12-26T16:04:01.693Z,12.37
2018-12-26T16:06:35.741Z,13.07
2018-12-26T16:09:09.954Z,12.40
2018-12-26T16:11:43.892Z,12.93
2018-12-26T16:14:17.964Z,11.77
2018-12-26T16:16:52.812Z,13.27
2018-12-26T16:19:26.952Z,12.87
2018-12-26T16:22:01.058Z,12.57
2018-12-26T16:24:35.189Z,15.03
2018-12-26T16:27:09.271Z,14.23
2018-12-26T16:29:43.363Z,12.47
2018-12-26T16:32:17.421Z,12.43
2018-12-26T16:34:51.494Z,12.70
2018-12-26T16:37:25.550Z,12.70
2018-12-26T16:39:59.649Z,12.50
2018-12-26T16:42:33.800Z,12.60
2018-12-26T16:45:07.917Z,12.00
2018-12-26T16:47:41.891Z,11.57
2018-12-26T16:50:15.897Z,11.30
2018-12-26T16:52:50.016Z,11.60
2018-12-26T16:55:24.032Z,12.00
2018-12-26T16:57:58.973Z,10.77
2018-12-26T17:00:33.224Z,10.70
2018-12-26T17:03:07.368Z,11.20
2018-12-26T17:05:41.406Z,11.97
2018-12-26T17:08:16.311Z,10.70
2018-12-26T17:10:50.449Z,11.33
2018-12-26T17:13:24.536Z,10.93
2018-12-26T17:15:58.660Z,12.03
2018-12-26T17:18:32.756Z,12.27
2018-12-26T17:21:06.874Z,13.07
2018-12-26T17:23:40.893Z,12.30
2018-12-26T17:26:15.748Z,11.20
2018-12-26T17:28:49.921Z,10.53
2018-12-26T17:31:24.103Z,12.37
2018-12-26T17:33:58.065Z,12.23
2018-12-26T17:36:32.094Z,12.13
2018-12-26T17:39:06.260Z,10.87
2018-12-26T17:41:40.393Z,10.67
2018-12-26T17:44:14.480Z,12.43
2018-12-26T17:46:49.481Z,14.13
2018-12-26T17:49:23.440Z,11.63
2018-12-26T17:51:57.556Z,11.40
2018-12-26T17:54:31.722Z,10.27
2018-12-26T17:57:05.706Z,12.30
2018-12-26T17:59:43.673Z,11.13
2018-12-26T18:02:23.500Z,12.13
2018-12-26T18:04:58.233Z,11.67
2018-12-26T18:07:32.468Z,11.90
2018-12-26T18:10:06.583Z,11.40
2018-12-26T18:12:40.645Z,11.27
2018-12-26T18:15:14.563Z,11.67
2018-12-26T18:17:48.617Z,11.33
2018-12-26T18:20:22.625Z,12.70
2018-12-26T18:22:56.771Z,12.73
2018-12-26T18:25:31.696Z,12.47
2018-12-26T18:28:05.720Z,12.63
2018-12-26T18:30:40.017Z,12.90
2018-12-26T18:33:14.011Z,11.97
2018-12-26T18:35:48.943Z,13.13
2018-12-26T18:38:23.053Z,11.43
2018-12-26T18:40:57.145Z,11.63
2018-12-26T18:43:31.225Z,11.43
2018-12-26T18:46:05.320Z,11.70
2018-12-26T18:48:39.404Z,11.57
2018-12-26T18:51:13.589Z,10.67
2018-12-26T18:53:47.560Z,11.53
2018-12-26T18:56:21.722Z,11.03
2018-12-26T18:58:55.682Z,10.83
2018-12-26T19:01:30.762Z,10.30
2018-12-26T19:04:03.805Z,12.37
2018-12-26T19:06:37.942Z,12.67
2018-12-26T19:09:12.075Z,12.90
2018-12-26T19:11:46.103Z,12.33
2018-12-26T19:14:20.089Z,12.07
2018-12-26T19:16:54.158Z,11.73
2018-12-26T19:19:28.103Z,11.97
2018-12-26T19:22:03.033Z,13.17
2018-12-26T19:24:37.185Z,12.13
2018-12-26T19:27:11.342Z,11.30
2018-12-26T19:29:45.453Z,11.00
2018-12-26T19:32:19.485Z,11.63
2018-12-26T19:34:53.685Z,11.70
2018-12-26T19:37:27.716Z,10.93
2018-12-26T19:40:01.836Z,11.67
2018-12-26T19:42:37.477Z,11.57
2018-12-26T19:45:10.089Z,12.00
2018-12-26T19:47:45.042Z,12.50
2018-12-26T19:50:19.052Z,11.70
2018-12-26T19:52:53.194Z,11.43
2018-12-26T19:55:27.160Z,13.20
2018-12-26T19:58:02.073Z,14.60
2018-12-26T20:00:36.827Z,12.53
2018-12-26T20:03:11.021Z,12.67
2018-12-26T20:05:45.912Z,12.07
2018-12-26T20:08:20.028Z,11.73
2018-12-26T20:10:54.068Z,11.33
2018-12-26T20:13:28.158Z,12.53
2018-12-26T20:16:02.350Z,11.57
2018-12-26T20:18:36.475Z,10.77
2018-12-26T20:21:10.585Z,10.10
2018-12-26T20:23:44.644Z,10.63
2018-12-26T20:26:18.759Z,11.67
2018-12-26T20:28:52.849Z,11.83
2018-12-26T20:31:26.936Z,11.30
2018-12-26T20:34:00.947Z,11.20
2018-12-26T20:36:35.197Z,11.13
2018-12-26T20:39:09.190Z,11.10
2018-12-26T20:41:44.147Z,10.47
2018-12-26T20:44:18.312Z,10.17
2018-12-26T20:46:52.352Z,10.53
2018-12-26T20:49:27.180Z,13.20
2018-12-26T20:52:01.141Z,10.93
2018-12-26T20:54:35.193Z,10.90
2018-12-26T20:57:09.492Z,11.80
2018-12-26T20:59:43.536Z,11.13
2018-12-26T21:02:17.615Z,11.43
2018-12-26T21:04:51.661Z,11.00
2018-12-26T21:07:25.802Z,12.20
2018-12-26T21:09:59.866Z,11.80
2018-12-26T21:12:33.963Z,11.87
2018-12-26T21:15:07.987Z,11.60
2018-12-26T21:17:42.089Z,11.60
2018-12-26T21:20:16.153Z,12.40
2018-12-26T21:22:50.224Z,11.97
2018-12-26T21:25:24.218Z,11.63
2018-12-26T21:27:58.384Z,12.33
2018-12-26T21:30:33.205Z,11.80
2018-12-26T21:33:07.288Z,11.57
2018-12-26T21:35:41.424Z,12.27
2018-12-26T21:38:15.423Z,13.33
2018-12-26T21:40:49.576Z,11.27
2018-12-26T21:43:23.569Z,13.80
2018-12-26T21:45:57.571Z,12.53
2018-12-26T21:48:31.534Z,12.87
2018-12-26T21:51:05.660Z,12.53
2018-12-26T21:53:39.593Z,12.23
2018-12-26T21:56:13.953Z,15.67
2018-12-26T21:58:47.869Z,13.37
2018-12-26T22:01:22.303Z,12.63
2018-12-26T22:03:56.386Z,22.53
